Terminal Aerodrome Forecast
Issued by NWS Grand Forks, ND

Home | Current Version | Previous Version | Text Only | Print | Product List | Glossary On
Versions: 1 2 3 4 5 6 7 8 9 10 11 12 13 14 15 16
000
FTUS43 KFGF 230500
TAFGFK
TAF
KGFK 230520Z 2306/2406 12007KT P6SM BKN250
     FM231100 14015KT P6SM BKN050
     FM231500 13022G30KT 5SM -RA OVC040
     FM240200 12017KT 4SM -RA OVC025=

USA.gov is the U.S. government's official web portal to all federal, state and local government web resources and services.